Time;durP1;ratioP1;P1;durP2;ratioP2;P2;SDS_P1;SDS_P2;PMS_P1;PMS_P2;Temp;Humidity;BMP_temperature;BMP_pressure;BME280_temperature;BME280_humidity;BME280_pressure;Samples;Min_cycle;Max_cycle;Signal;HPM_P1;HPM_P2
2023/06/14 00:01:48;;;;;;;3.88;2.47;;;;;;;20.15;42.18;101413.75;5130354;27;20375;-37
2023/06/14 00:04:16;;;;;;;5.60;2.90;;;;;;;20.04;42.12;101419.28;5129730;27;20111;-37
2023/06/14 00:06:42;;;;;;;3.50;2.65;;;;;;;19.97;42.18;101406.97;5129927;27;20031;-37
2023/06/14 00:09:08;;;;;;;6.97;3.03;;;;;;;19.99;42.06;101419.31;5129726;27;20050;-37
2023/06/14 00:11:33;;;;;;;4.80;2.45;;;;;;;19.89;41.69;101418.53;5120174;27;20366;-37
2023/06/14 00:13:59;;;;;;;4.55;3.03;;;;;;;19.93;41.43;101423.16;5115905;28;20023;-37
2023/06/14 00:16:24;;;;;;;4.18;2.60;;;;;;;19.82;42.07;101401.53;5116389;28;20051;-37
2023/06/14 00:18:51;;;;;;;5.65;3.42;;;;;;;19.75;41.79;101418.28;5115761;28;20031;-37
2023/06/14 00:21:17;;;;;;;3.63;2.75;;;;;;;19.78;41.36;101415.81;5116022;28;20027;-37
2023/06/14 00:23:42;;;;;;;3.70;2.70;;;;;;;19.73;41.82;101415.00;5115917;28;20519;-37
2023/06/14 00:26:08;;;;;;;6.03;2.60;;;;;;;19.68;41.29;101415.84;5116454;28;20039;-37
2023/06/14 00:28:33;;;;;;;5.05;2.90;;;;;;;19.62;41.83;101422.44;5115348;28;20028;-37
2023/06/14 00:30:58;;;;;;;4.88;2.90;;;;;;;19.55;41.61;101427.34;5115611;28;20043;-37
2023/06/14 00:33:24;;;;;;;5.63;2.65;;;;;;;19.52;41.98;101427.88;5115729;27;20023;-37
2023/06/14 00:35:50;;;;;;;3.70;2.90;;;;;;;19.62;41.51;101427.94;5115769;28;20028;-37
2023/06/14 00:38:15;;;;;;;3.92;2.90;;;;;;;19.45;41.63;101427.38;5114425;28;20114;-37
2023/06/14 00:40:40;;;;;;;5.05;2.88;;;;;;;19.48;42.21;101427.63;5115480;28;20077;-37
2023/06/14 00:43:06;;;;;;;5.95;2.70;;;;;;;19.45;41.87;101427.38;5115298;28;20034;-37
2023/06/14 00:45:35;;;;;;;4.50;2.63;;;;;;;19.47;41.72;101425.16;5115993;28;20110;-37
2023/06/14 00:48:02;;;;;;;3.80;2.38;;;;;;;19.44;42.28;101421.06;5115460;28;20032;-37
2023/06/14 00:50:29;;;;;;;2.95;2.47;;;;;;;19.28;42.17;101431.22;5115245;28;20084;-37
2023/06/14 00:52:55;;;;;;;6.75;2.53;;;;;;;19.23;42.11;101423.00;5115610;27;20028;-37
2023/06/14 00:55:20;;;;;;;6.28;2.92;;;;;;;19.28;41.44;101433.97;5115605;28;20379;-37
2023/06/14 00:57:47;;;;;;;3.53;2.42;;;;;;;19.14;41.71;101443.84;5114807;28;20031;-37
2023/06/14 01:00:13;;;;;;;5.78;2.40;;;;;;;19.18;42.49;101433.97;5115396;28;20364;-37
2023/06/14 01:02:38;;;;;;;3.70;2.70;;;;;;;19.15;41.82;101433.69;5115181;28;20046;-37
2023/06/14 01:05:06;;;;;;;4.10;2.40;;;;;;;19.15;41.98;101430.94;5115195;28;20463;-37
2023/06/14 01:07:50;;;;;;;5.80;2.45;;;;;;;19.03;42.38;101433.94;5114630;28;20059;-37
2023/06/14 01:10:34;;;;;;;4.18;2.60;;;;;;;19.05;42.30;101437.25;5115063;28;20032;-37
2023/06/14 01:13:11;;;;;;;4.63;2.60;;;;;;;18.94;42.34;101441.09;5114895;28;20084;-37
2023/06/14 01:15:39;;;;;;;8.27;2.83;;;;;;;18.84;42.21;101438.31;5114699;28;20111;-37
2023/06/14 01:18:05;;;;;;;5.65;2.97;;;;;;;18.81;42.64;101434.22;5115187;28;20031;-37
2023/06/14 01:20:33;;;;;;;6.20;2.70;;;;;;;18.77;43.27;101438.59;5115216;28;20062;-37
2023/06/14 01:22:59;;;;;;;4.43;2.50;;;;;;;18.86;43.22;101436.13;5113534;28;20386;-37
2023/06/14 01:25:26;;;;;;;4.57;2.47;;;;;;;18.73;43.50;101435.56;5114678;28;20047;-37
2023/06/14 01:28:10;;;;;;;3.95;2.70;;;;;;;18.62;43.57;101436.59;5114522;28;20110;-37
2023/06/14 01:30:37;;;;;;;6.50;3.25;;;;;;;18.69;43.35;101439.09;5114589;28;20036;-37
2023/06/14 01:33:04;;;;;;;4.10;2.65;;;;;;;18.66;43.70;101443.19;5114060;28;20028;-37
2023/06/14 01:35:30;;;;;;;7.82;2.58;;;;;;;18.64;43.16;101434.44;5114771;28;20023;-37
2023/06/14 01:37:56;;;;;;;4.53;2.40;;;;;;;18.67;43.49;101433.88;5114549;28;20421;-37
2023/06/14 01:40:23;;;;;;;4.60;2.70;;;;;;;18.61;43.71;101440.44;5114153;28;20027;-37
2023/06/14 01:42:50;;;;;;;5.15;2.90;;;;;;;18.35;43.90;101436.81;5114377;28;20364;-36
2023/06/14 01:45:17;;;;;;;3.38;2.20;;;;;;;18.43;44.25;101447.22;5113933;28;20028;-36
2023/06/14 01:47:44;;;;;;;7.63;2.70;;;;;;;18.46;44.73;101437.66;5113856;28;20040;-37
2023/06/14 01:50:09;;;;;;;3.15;2.40;;;;;;;18.34;44.02;101445.28;5113709;28;20043;-37
2023/06/14 01:52:36;;;;;;;4.55;2.10;;;;;;;18.35;43.89;101442.28;5114537;28;20043;-37
2023/06/14 01:55:01;;;;;;;2.95;2.28;;;;;;;18.29;44.48;101429.66;5113969;28;20031;-37
2023/06/14 01:57:27;;;;;;;5.22;2.67;;;;;;;18.28;43.98;101437.03;5113917;28;20020;-36
2023/06/14 01:59:53;;;;;;;4.53;2.55;;;;;;;18.23;44.02;101434.28;5113747;28;20053;-36
2023/06/14 02:02:18;;;;;;;5.50;2.60;;;;;;;18.14;44.12;101438.63;5113869;28;20028;-37
2023/06/14 02:04:43;;;;;;;;;;;;;;;18.28;43.65;101442.53;5114300;28;20051;-37
2023/06/14 02:07:09;;;;;;;4.00;2.65;;;;;;;18.13;44.20;101447.13;5114056;28;19987;-37
2023/06/14 02:09:35;;;;;;;4.80;3.17;;;;;;;18.05;44.91;101442.13;5113810;28;20089;-36
2023/06/14 02:12:01;;;;;;;3.22;2.10;;;;;;;17.97;45.02;101441.56;5113776;28;20038;-36
2023/06/14 02:14:26;;;;;;;6.35;2.80;;;;;;;17.97;44.95;101451.69;5113711;28;20115;-37
2023/06/14 02:16:52;;;;;;;3.85;2.50;;;;;;;17.89;45.12;101441.25;5113270;28;20103;-37
2023/06/14 02:19:19;;;;;;;;;;;;;;;18.06;44.06;101450.09;5113967;28;20039;-37
2023/06/14 02:21:45;;;;;;;4.83;2.10;;;;;;;17.88;45.82;101439.59;5113543;28;19960;-37
2023/06/14 02:24:11;;;;;;;6.70;2.42;;;;;;;17.95;45.41;101441.00;5113478;28;20309;-37
2023/06/14 02:26:37;;;;;;;6.30;2.10;;;;;;;17.88;45.58;101442.34;5113436;28;20102;-37
2023/06/14 02:29:05;;;;;;;2.72;2.08;;;;;;;17.70;46.01;101435.34;5113522;28;20077;-37
2023/06/14 02:31:31;;;;;;;3.17;2.17;;;;;;;17.68;46.41;101423.88;5113395;28;20035;-36
2023/06/14 02:33:56;;;;;;;4.18;2.53;;;;;;;17.80;46.77;101440.09;5113089;28;20051;-37
2023/06/14 02:36:22;;;;;;;6.20;2.30;;;;;;;17.69;46.75;101445.47;5113565;28;20451;-37
2023/06/14 02:38:47;;;;;;;;;;;;;;;17.94;45.00;101447.56;5113584;28;20159;-37
2023/06/14 02:41:13;;;;;;;5.43;2.80;;;;;;;17.62;46.35;101439.44;5113335;28;19916;-37
2023/06/14 02:43:38;;;;;;;;;;;;;;;17.87;45.13;101446.16;5113561;28;20023;-37
2023/06/14 02:46:03;;;;;;;6.95;2.58;;;;;;;17.68;47.21;101443.00;5113541;28;19912;-36
2023/06/14 02:48:30;;;;;;;4.32;2.30;;;;;;;17.54;47.18;101448.13;5113114;28;20034;-37
2023/06/14 02:50:56;;;;;;;5.40;2.40;;;;;;;17.54;46.67;101448.13;5113017;28;20344;-37
2023/06/14 02:53:21;;;;;;;6.25;2.33;;;;;;;17.38;47.17;101438.97;5113625;28;20484;-37
2023/06/14 02:55:48;;;;;;;5.40;2.47;;;;;;;17.47;47.51;101461.16;5113439;28;20114;-36
2023/06/14 02:58:13;;;;;;;3.65;2.60;;;;;;;17.42;47.66;101445.59;5112871;28;20451;-36
2023/06/14 03:00:40;;;;;;;3.92;2.40;;;;;;;17.44;48.13;101456.25;5113254;28;20055;-36
2023/06/14 03:03:13;;;;;;;5.45;2.15;;;;;;;17.38;47.81;101444.44;5113111;28;20032;-36
2023/06/14 03:05:40;;;;;;;4.57;2.70;;;;;;;17.35;47.77;101449.59;5113092;28;20168;-36
2023/06/14 03:08:06;;;;;;;4.53;2.17;;;;;;;17.25;48.21;101453.91;5113152;28;20460;-36
2023/06/14 03:10:32;;;;;;;6.05;2.33;;;;;;;17.29;48.22;101447.94;5112673;28;20034;-36
2023/06/14 03:12:57;;;;;;;3.28;2.22;;;;;;;17.25;48.46;101462.09;5113141;28;20023;-36
2023/06/14 03:15:24;;;;;;;;;;;;;;;17.45;47.15;101460.63;5113722;28;20102;-36
2023/06/14 03:17:50;;;;;;;2.75;2.10;;;;;;;17.18;48.66;101464.25;5112814;28;19946;-36
2023/06/14 03:20:16;;;;;;;4.95;2.35;;;;;;;17.14;48.26;101463.09;5113057;28;20028;-36
2023/06/14 03:22:41;;;;;;;4.55;2.28;;;;;;;17.10;49.37;101470.16;5112671;28;20511;-36
2023/06/14 03:25:07;;;;;;;;;;;;;;;17.33;47.09;101463.53;5113310;28;20066;-36
2023/06/14 03:27:32;;;;;;;7.93;2.38;;;;;;;17.06;49.08;101469.03;5112578;28;20282;-36
2023/06/14 03:29:57;;;;;;;;;;;;;;;17.29;46.98;101469.78;5113399;28;20034;-37
2023/06/14 03:32:23;;;;;;;6.05;2.70;;;;;;;17.09;49.30;101470.44;5112358;28;19934;-36
2023/06/14 03:34:48;;;;;;;;;;;;;;;17.25;47.25;101473.03;5112735;28;20106;-36
2023/06/14 03:37:13;;;;;;;8.73;2.70;;;;;;;16.93;49.29;101477.66;5112573;28;19947;-36
2023/06/14 03:39:45;;;;;;;;;;;;;;;17.17;47.47;101476.22;5113155;28;20308;-36
2023/06/14 03:42:11;;;;;;;7.97;2.67;;;;;;;16.91;49.86;101477.91;5112856;28;20204;-36
2023/06/14 03:44:36;;;;;;;;;;;;;;;17.13;48.12;101486.06;5113016;28;20027;-36
2023/06/14 03:47:02;;;;;;;5.70;2.20;;;;;;;16.80;50.70;101475.34;5115245;28;19911;-36
2023/06/14 03:49:27;;;;;;;;;;;;;;;17.06;48.02;101482.69;5116586;28;20467;-36
2023/06/14 03:51:52;;;;;;;6.20;2.50;;;;;;;16.91;50.44;101483.38;5116136;28;20294;-36
2023/06/14 03:54:18;;;;;;;;;;;;;;;17.10;48.41;101483.84;5116487;28;20254;-36
2023/06/14 03:56:43;;;;;;;3.72;2.50;;;;;;;16.85;50.23;101483.59;5116519;28;19916;-36
2023/06/14 03:59:08;;;;;;;;;;;;;;;17.03;48.84;101485.97;5116951;28;20466;-36
2023/06/14 04:01:34;;;;;;;4.17;2.47;;;;;;;16.87;50.70;101486.88;5116725;28;19916;-36
2023/06/14 04:03:59;;;;;;;;;;;;;;;17.06;48.71;101487.34;5116777;28;20286;-36
2023/06/14 04:06:31;;;;;;;3.63;2.13;;;;;;;16.82;50.64;101479.44;5116771;28;19915;-36
2023/06/14 04:08:56;;;;;;;3.47;2.22;;;;;;;16.87;52.19;101493.16;5115985;28;20031;-36
2023/06/14 04:11:22;;;;;;;;;;;;;;;17.03;49.90;101485.13;5116707;28;20024;-36
2023/06/14 04:13:47;;;;;;;4.27;2.40;;;;;;;16.94;51.35;101492.97;5115605;28;19907;-36
2023/06/14 04:16:13;;;;;;;;;;;;;;;17.07;49.03;101497.19;5116838;28;20039;-36
2023/06/14 04:18:38;;;;;;;6.03;2.40;;;;;;;16.92;51.67;101506.06;5116455;28;20394;-36
2023/06/14 04:21:04;;;;;;;;;;;;;;;17.02;50.14;101497.94;5116122;28;20115;-36
2023/06/14 04:23:30;;;;;;;10.00;2.88;;;;;;;16.87;52.00;101501.34;5115976;28;19908;-36
2023/06/14 04:26:01;;;;;;;;;;;;;;;17.07;50.15;101506.19;5116861;28;20110;-36
2023/06/14 04:28:27;;;;;;;4.13;2.35;;;;;;;16.93;51.17;101489.41;5116338;28;19908;-36
2023/06/14 04:30:53;;;;;;;;;;;;;;;17.18;49.90;101505.22;5116514;28;20069;-36
2023/06/14 04:33:19;;;;;;;4.03;2.30;;;;;;;17.10;52.21;101513.88;5115494;28;19912;-36
2023/06/14 04:35:47;;;;;;;;;;;;;;;17.23;50.38;101510.75;5115894;28;20081;-36
2023/06/14 04:38:12;;;;;;;3.13;2.35;;;;;;;17.14;50.55;101512.28;5115366;28;19907;-36
2023/06/14 04:40:45;;;;;;;;;;;;;;;17.28;50.76;101514.63;5115793;28;20103;-36
2023/06/14 04:43:17;;;;;;;4.43;2.17;;;;;;;17.22;52.05;101517.28;5115596;28;19934;-36
2023/06/14 04:45:45;;;;;;;4.07;2.47;;;;;;;17.12;51.50;101511.72;5115604;28;20031;-36
2023/06/14 04:48:10;;;;;;;4.57;2.38;;;;;;;17.34;51.57;101508.09;5115014;28;20024;-36
2023/06/14 04:50:35;;;;;;;6.25;2.50;;;;;;;17.17;51.52;101516.41;5114960;28;20031;-36
2023/06/14 04:53:01;;;;;;;;;;;;;;;17.41;50.93;101516.91;5115387;28;20024;-36
2023/06/14 04:55:26;;;;;;;4.72;2.20;;;;;;;17.35;52.30;101515.22;5115261;28;19911;-36
2023/06/14 04:57:53;;;;;;;;;;;;;;;17.56;50.48;101525.22;5115401;28;20502;-36
2023/06/14 05:00:19;;;;;;;5.80;2.55;;;;;;;17.56;51.48;101510.72;5114562;28;19930;-36
2023/06/14 05:02:46;;;;;;;3.20;1.90;;;;;;;17.60;52.05;101518.16;5114946;28;20038;-36
2023/06/14 05:05:12;;;;;;;7.47;2.92;;;;;;;17.78;51.88;101524.34;5114931;28;20110;-37
2023/06/14 05:07:37;;;;;;;5.28;2.65;;;;;;;17.56;51.54;101522.50;5114998;28;20380;-37
2023/06/14 05:10:03;;;;;;;6.70;2.35;;;;;;;17.72;51.98;101521.53;5114802;28;20032;-37
2023/06/14 05:12:29;;;;;;;;;;;;;;;17.83;50.97;101533.41;5115121;28;20502;-37
2023/06/14 05:14:54;;;;;;;4.90;2.17;;;;;;;17.84;51.76;101523.28;5114495;28;19912;-37
2023/06/14 05:17:20;;;;;;;4.45;2.38;;;;;;;17.86;52.19;101512.91;5114907;28;20020;-37
2023/06/14 05:19:46;;;;;;;6.95;2.20;;;;;;;17.93;51.89;101525.28;5115027;28;20024;-37
2023/06/14 05:22:11;;;;;;;8.18;2.88;;;;;;;18.02;51.63;101534.63;5114796;28;20478;-37
2023/06/14 05:24:36;;;;;;;;;;;;;;;18.17;50.56;101544.03;5114913;28;20420;-37
2023/06/14 05:27:02;;;;;;;8.93;3.20;;;;;;;18.01;51.40;101534.91;5114460;28;20005;-37
2023/06/14 05:29:27;;;;;;;;;;;;;;;18.27;50.77;101531.22;5115043;28;20273;-37
2023/06/14 05:31:52;;;;;;;6.27;2.63;;;;;;;18.15;51.45;101518.81;5114780;28;19920;-37
2023/06/14 05:34:18;;;;;;;;;;;;;;;18.46;50.85;101544.47;5115408;28;20606;-37
2023/06/14 05:36:43;;;;;;;6.80;2.30;;;;;;;18.39;51.64;101533.72;5114307;28;20014;-37
2023/06/14 05:39:09;;;;;;;6.20;2.60;;;;;;;18.42;51.29;101546.09;5114607;28;20028;-37
2023/06/14 05:41:34;;;;;;;7.80;2.53;;;;;;;18.52;51.19;101533.25;5114264;28;20043;-37
2023/06/14 05:44:00;;;;;;;;;;;;;;;18.81;50.86;101543.00;5114983;28;20511;-37
2023/06/14 05:46:26;;;;;;;5.05;2.72;;;;;;;18.75;50.62;101548.44;5114259;28;19907;-37
2023/06/14 05:48:51;;;;;;;;;;;;;;;18.93;50.30;101546.28;5114661;28;20055;-37
2023/06/14 05:51:18;;;;;;;8.25;2.95;;;;;;;18.75;50.19;101556.66;5114457;28;19908;-37
2023/06/14 05:53:48;;;;;;;4.20;2.28;;;;;;;18.65;49.74;101548.38;5113945;28;20458;-37
2023/06/14 05:56:14;;;;;;;7.95;2.50;;;;;;;18.82;50.46;101558.31;5114009;28;20051;-37
2023/06/14 05:58:40;;;;;;;5.57;2.40;;;;;;;18.88;49.87;101559.97;5113951;28;20059;-37
2023/06/14 06:01:06;;;;;;;9.85;3.20;;;;;;;19.00;49.56;101541.41;5114479;28;20440;-37
2023/06/14 06:03:31;;;;;;;;;;;;;;;19.21;48.97;101559.53;5114048;28;20382;-37
2023/06/14 06:05:56;;;;;;;5.97;2.30;;;;;;;19.28;47.99;101554.63;5113524;28;19973;-37
2023/06/14 06:08:22;;;;;;;5.25;2.35;;;;;;;19.17;47.79;101563.91;5113639;28;20059;-37
2023/06/14 06:10:47;;;;;;;4.28;2.15;;;;;;;19.35;47.98;101564.50;5113365;28;20033;-37
2023/06/14 06:13:12;;;;;;;3.22;2.13;;;;;;;19.24;47.15;101569.13;5113720;28;20057;-37
2023/06/14 06:15:38;;;;;;;9.68;2.58;;;;;;;19.32;47.33;101563.09;5113890;28;20132;-37
2023/06/14 06:18:03;;;;;;;4.05;2.08;;;;;;;19.40;47.58;101562.56;5113617;28;20419;-37
2023/06/14 06:20:31;;;;;;;6.10;2.22;;;;;;;19.42;47.09;101554.91;5113531;28;20463;-37
2023/06/14 06:22:57;;;;;;;6.75;2.38;;;;;;;19.61;46.68;101568.91;5113978;28;20038;-37
2023/06/14 06:25:25;;;;;;;4.63;2.10;;;;;;;19.70;46.82;101578.25;5113448;28;20030;-37
2023/06/14 06:27:51;;;;;;;6.13;2.42;;;;;;;19.74;47.09;101573.03;5114096;28;20031;-37
2023/06/14 06:30:16;;;;;;;5.88;2.17;;;;;;;19.64;46.59;101573.88;5113946;28;20439;-37
2023/06/14 06:32:42;;;;;;;5.78;2.28;;;;;;;19.55;46.65;101583.69;5113381;28;20109;-37
2023/06/14 06:35:08;;;;;;;6.10;2.50;;;;;;;19.59;47.42;101582.06;5113363;28;20111;-37
2023/06/14 06:37:34;;;;;;;5.95;2.30;;;;;;;19.77;47.02;101583.47;5114327;28;20039;-37
2023/06/14 06:39:59;;;;;;;7.88;2.30;;;;;;;19.82;46.02;101588.97;5112980;28;20034;-37
2023/06/14 06:42:25;;;;;;;5.53;2.30;;;;;;;19.88;46.57;101584.28;5112960;28;20060;-37
2023/06/14 06:44:50;;;;;;;5.32;2.40;;;;;;;20.04;46.21;101594.97;5113131;28;20057;-37
2023/06/14 06:47:15;;;;;;;9.20;2.90;;;;;;;20.09;46.75;101588.66;5113539;28;20095;-37
2023/06/14 06:49:41;;;;;;;4.90;2.05;;;;;;;20.24;47.40;101596.88;5112766;28;20046;-37
2023/06/14 06:52:07;;;;;;;7.88;2.38;;;;;;;20.07;46.15;101607.34;5112833;28;20031;-37
2023/06/14 06:54:33;;;;;;;3.72;2.30;;;;;;;20.03;45.89;101587.03;5113360;28;20023;-37
2023/06/14 06:56:59;;;;;;;4.88;2.55;;;;;;;20.13;45.97;101616.38;5112816;28;20137;-37
2023/06/14 06:59:25;;;;;;;7.63;2.30;;;;;;;20.12;46.30;101609.25;5112564;28;20042;-37
2023/06/14 07:01:50;;;;;;;9.52;2.33;;;;;;;20.31;46.01;101610.31;5113371;28;20063;-37
2023/06/14 07:04:16;;;;;;;8.52;2.25;;;;;;;20.50;45.57;101614.16;5112663;28;20023;-37
2023/06/14 07:06:42;;;;;;;5.07;2.10;;;;;;;20.57;46.14;101602.88;5113021;28;20024;-37
2023/06/14 07:09:12;;;;;;;3.80;2.05;;;;;;;20.55;44.96;101589.41;5112897;28;20047;-37
2023/06/14 07:11:40;;;;;;;4.07;2.05;;;;;;;20.74;45.38;101608.00;5113269;28;20024;-37
2023/06/14 07:14:06;;;;;;;8.85;2.10;;;;;;;20.81;44.00;101614.88;5112850;28;20028;-37
2023/06/14 07:16:32;;;;;;;4.53;2.40;;;;;;;20.77;44.36;101624.78;5113142;28;20027;-37
2023/06/14 07:18:58;;;;;;;4.00;2.30;;;;;;;20.94;44.23;101618.13;5112795;28;20112;-37
2023/06/14 07:21:25;;;;;;;4.05;2.25;;;;;;;20.81;44.08;101625.88;5114900;28;20035;-37
2023/06/14 07:23:51;;;;;;;5.55;1.92;;;;;;;20.99;45.00;101618.09;5116986;28;20024;-37
2023/06/14 07:26:16;;;;;;;5.65;2.17;;;;;;;21.08;44.76;101624.63;5117649;28;20034;-37
2023/06/14 07:28:44;;;;;;;6.57;2.05;;;;;;;21.20;43.89;101624.31;5116926;28;20023;-37
2023/06/14 07:31:10;;;;;;;5.95;2.75;;;;;;;21.32;44.02;101625.63;5117425;28;20106;-37
2023/06/14 07:33:35;;;;;;;9.15;2.70;;;;;;;21.46;43.39;101633.25;5116712;28;20107;-37
2023/06/14 07:36:01;;;;;;;8.68;2.35;;;;;;;21.50;43.55;101629.66;5116673;28;20034;-37
2023/06/14 07:38:26;;;;;;;4.55;2.13;;;;;;;21.60;41.98;101631.53;5116584;28;20084;-37
2023/06/14 07:40:52;;;;;;;3.78;2.20;;;;;;;21.58;42.17;101636.50;5116827;28;20024;-37
2023/06/14 07:43:17;;;;;;;5.72;2.05;;;;;;;21.67;42.14;101647.69;5116547;28;20034;-37
2023/06/14 07:45:42;;;;;;;6.95;2.38;;;;;;;21.61;41.24;101635.91;5116340;28;20035;-38
2023/06/14 07:48:09;;;;;;;3.60;2.40;;;;;;;21.74;42.03;101646.28;5116352;28;20027;-37
2023/06/14 07:50:35;;;;;;;12.07;2.30;;;;;;;21.69;41.89;101627.06;5116659;28;20413;-37
2023/06/14 07:53:00;;;;;;;8.38;1.63;;;;;;;21.87;43.69;101641.25;5116156;28;20037;-37
2023/06/14 07:55:26;;;;;;;4.53;1.92;;;;;;;21.89;41.48;101641.78;5116685;28;20114;-37
2023/06/14 07:57:51;;;;;;;4.57;1.80;;;;;;;21.99;41.34;101653.50;5116335;28;20118;-37
2023/06/14 08:00:18;;;;;;;5.45;2.03;;;;;;;22.14;42.15;101657.28;5116143;28;20118;-37
2023/06/14 08:02:44;;;;;;;2.55;1.63;;;;;;;22.23;41.26;101650.84;5116794;28;20047;-37
2023/06/14 08:05:13;;;;;;;7.97;1.92;;;;;;;22.32;41.08;101640.84;5116151;28;20024;-37
2023/06/14 08:07:40;;;;;;;8.27;1.80;;;;;;;22.41;39.60;101643.00;5116107;28;20452;-37
2023/06/14 08:10:06;;;;;;;3.53;1.88;;;;;;;22.54;40.00;101650.53;5115989;28;20031;-37
2023/06/14 08:12:32;;;;;;;4.18;1.50;;;;;;;22.64;39.69;101653.19;5116546;28;20062;-37
2023/06/14 08:14:58;;;;;;;3.40;1.48;;;;;;;22.69;39.04;101653.13;5115973;28;20455;-37
2023/06/14 08:17:24;;;;;;;4.35;1.50;;;;;;;22.70;39.01;101654.78;5116213;28;20062;-37
2023/06/14 08:19:50;;;;;;;4.90;1.70;;;;;;;22.86;39.32;101652.66;5115730;28;20136;-37
2023/06/14 08:22:16;;;;;;;8.75;1.83;;;;;;;22.63;37.92;101649.63;5115851;28;20019;-37
2023/06/14 08:24:42;;;;;;;11.13;1.90;;;;;;;22.71;38.18;101653.69;5115740;28;20099;-37
2023/06/14 08:27:07;;;;;;;4.63;1.67;;;;;;;22.85;38.71;101654.63;5115833;28;20035;-37
2023/06/14 08:29:33;;;;;;;6.93;1.77;;;;;;;22.98;38.91;101655.03;5115922;28;20027;-37
2023/06/14 08:31:58;;;;;;;4.13;1.55;;;;;;;23.04;38.33;101651.94;5115779;28;20404;-37
2023/06/14 08:34:23;;;;;;;3.60;1.58;;;;;;;23.08;38.28;101654.91;5115279;28;20043;-37
2023/06/14 08:36:52;;;;;;;4.07;1.33;;;;;;;23.18;38.23;101654.78;5115953;28;20423;-37
2023/06/14 08:39:17;;;;;;;3.63;1.65;;;;;;;23.19;37.41;101653.66;5115401;28;20023;-37
2023/06/14 08:41:49;;;;;;;5.07;1.63;;;;;;;23.30;37.89;101654.34;5115441;28;20042;-38
2023/06/14 08:44:18;;;;;;;4.18;1.30;;;;;;;23.33;38.34;101653.75;5115666;28;20092;-37
2023/06/14 08:46:43;;;;;;;3.80;1.13;;;;;;;23.29;37.06;101645.25;5115241;28;20055;-37
2023/06/14 08:49:11;;;;;;;4.20;1.60;;;;;;;23.40;37.22;101648.69;5115990;28;20082;-37
2023/06/14 08:51:38;;;;;;;5.10;1.42;;;;;;;23.49;36.38;101638.63;5115480;28;20031;-37
2023/06/14 08:54:04;;;;;;;2.70;1.23;;;;;;;23.71;36.81;101651.00;5115176;28;20464;-37
2023/06/14 08:56:31;;;;;;;6.95;1.52;;;;;;;23.76;36.87;101637.94;5115418;28;20024;-37
2023/06/14 08:59:01;;;;;;;5.30;1.70;;;;;;;23.64;35.11;101652.22;5113517;28;20027;-37
2023/06/14 09:01:27;;;;;;;3.10;1.30;;;;;;;23.86;35.97;101643.31;5114885;28;20433;-37
2023/06/14 09:03:54;;;;;;;5.10;1.30;;;;;;;23.76;35.88;101642.63;5115038;28;20096;-37
2023/06/14 09:06:22;;;;;;;3.30;1.20;;;;;;;23.80;33.13;101633.47;5114989;28;20328;-37
2023/06/14 09:08:48;;;;;;;1.77;1.10;;;;;;;23.95;32.92;101646.19;5114926;28;20041;-37
2023/06/14 09:11:18;;;;;;;3.90;1.15;;;;;;;23.92;32.74;101640.47;5115380;28;20134;-37
2023/06/14 09:13:43;;;;;;;2.08;1.10;;;;;;;24.08;32.68;101650.13;5115035;28;20386;-37
2023/06/14 09:16:09;;;;;;;2.10;1.15;;;;;;;24.10;31.59;101645.13;5114983;28;20036;-37
2023/06/14 09:18:47;;;;;;;1.90;1.02;;;;;;;24.25;31.35;101652.31;5114486;28;20024;-37
2023/06/14 09:21:14;;;;;;;5.53;1.20;;;;;;;24.30;30.70;101646.69;5114473;28;20024;-37
2023/06/14 09:23:44;;;;;;;4.72;1.10;;;;;;;24.40;30.02;101652.91;5114605;28;20062;-37
2023/06/14 09:26:14;;;;;;;1.60;1.00;;;;;;;24.33;30.42;101646.09;5115273;28;20297;-37
2023/06/14 09:28:48;;;;;;;4.20;1.30;;;;;;;24.04;31.28;101652.66;5114569;28;20032;-37
2023/06/14 09:31:15;;;;;;;4.65;1.02;;;;;;;24.28;31.87;101657.25;5114851;28;20028;-37
2023/06/14 09:33:48;;;;;;;4.00;0.90;;;;;;;24.35;30.47;101650.22;5114640;28;20452;-38
2023/06/14 09:36:23;;;;;;;1.30;0.80;;;;;;;24.56;31.23;101655.38;5114329;28;20058;-37
2023/06/14 09:39:08;;;;;;;2.33;0.60;;;;;;;24.65;30.62;101645.25;5113882;28;20470;-37
2023/06/14 09:41:35;;;;;;;2.70;1.00;;;;;;;25.01;31.31;101652.81;5114449;28;20058;-37
2023/06/14 09:44:02;;;;;;;2.05;0.68;;;;;;;25.23;30.32;101663.16;5113026;28;20028;-37
2023/06/14 09:46:29;;;;;;;1.35;0.80;;;;;;;25.21;28.52;101660.69;5114407;28;20439;-37
2023/06/14 09:48:54;;;;;;;2.75;0.80;;;;;;;25.13;28.03;101658.66;5114123;28;20367;-37
2023/06/14 09:51:22;;;;;;;5.15;0.90;;;;;;;25.03;28.48;101662.44;5114106;28;20039;-37
2023/06/14 09:53:49;;;;;;;3.53;0.75;;;;;;;25.03;27.99;101661.63;5114120;28;20027;-37
2023/06/14 09:56:26;;;;;;;3.70;0.63;;;;;;;25.06;28.75;101663.78;5114695;28;20019;-37
2023/06/14 09:58:56;;;;;;;3.10;0.85;;;;;;;25.12;29.17;101657.03;5113881;28;20364;-37
2023/06/14 10:01:24;;;;;;;2.10;1.08;;;;;;;25.23;29.44;101663.16;5113927;28;20397;-37
2023/06/14 10:03:54;;;;;;;3.97;0.90;;;;;;;25.17;28.60;101656.91;5113812;28;20436;-37
2023/06/14 10:06:24;;;;;;;2.33;0.90;;;;;;;25.21;31.26;101649.63;5114113;28;20050;-37
2023/06/14 10:08:52;;;;;;;4.38;1.10;;;;;;;25.35;30.94;101639.34;5113774;27;20106;-37
2023/06/14 10:11:18;;;;;;;3.92;0.90;;;;;;;25.30;29.54;101642.25;5113440;28;20490;-37
2023/06/14 10:13:44;;;;;;;3.72;1.20;;;;;;;25.42;29.38;101642.50;5113660;28;20027;-37
2023/06/14 10:16:09;;;;;;;2.72;1.08;;;;;;;25.59;29.12;101641.84;5113593;28;20477;-37
2023/06/14 10:18:40;;;;;;;1.98;0.98;;;;;;;25.61;28.69;101647.06;5113157;28;20179;-37
2023/06/14 10:21:37;;;;;;;1.83;0.80;;;;;;;25.76;28.62;101645.91;5113574;28;20146;-37
2023/06/14 10:24:06;;;;;;;2.88;1.55;;;;;;;25.80;29.49;101646.91;5079646;28;20035;-37
2023/06/14 10:26:32;;;;;;;3.20;0.93;;;;;;;25.89;28.71;101636.72;5114110;28;20034;-37
2023/06/14 10:29:07;;;;;;;1.77;0.90;;;;;;;25.97;28.79;101635.16;5113113;27;20024;-37
2023/06/14 10:31:49;;;;;;;2.13;1.15;;;;;;;26.09;29.19;101629.84;5113583;28;20020;-37
2023/06/14 10:34:25;;;;;;;3.97;1.00;;;;;;;26.22;28.83;101645.56;5113750;28;20028;-38
2023/06/14 10:37:07;;;;;;;1.27;1.00;;;;;;;26.39;28.84;101640.09;5113706;28;20486;-38
2023/06/14 10:39:39;;;;;;;4.50;1.10;;;;;;;26.04;28.59;101649.38;5113383;28;20050;-37
2023/06/14 10:42:06;;;;;;;2.15;1.00;;;;;;;26.24;28.00;101645.25;5113246;28;20032;-38
2023/06/14 10:44:41;;;;;;;2.00;1.05;;;;;;;26.00;27.90;101634.50;5113075;28;20103;-38
2023/06/14 10:47:09;;;;;;;3.00;1.15;;;;;;;26.30;28.46;101632.88;5113418;28;20028;-37
2023/06/14 10:49:44;;;;;;;2.85;1.20;;;;;;;26.29;28.87;101642.34;5113366;28;20034;-38
2023/06/14 10:52:16;;;;;;;2.25;1.10;;;;;;;26.13;27.76;101639.16;5113581;28;20107;-38
2023/06/14 10:55:04;;;;;;;2.50;0.93;;;;;;;26.27;27.91;101641.84;5113175;28;20039;-37
2023/06/14 10:57:31;;;;;;;2.15;1.00;;;;;;;26.76;28.54;101629.69;5112957;28;20472;-37
2023/06/14 10:59:57;;;;;;;2.20;0.90;;;;;;;26.89;27.41;101631.53;5112699;28;20054;-37
2023/06/14 11:02:46;;;;;;;1.33;0.95;;;;;;;27.00;26.86;101645.09;5113192;28;20036;-38
2023/06/14 11:05:15;;;;;;;3.38;1.02;;;;;;;26.88;27.16;101642.94;5102519;28;20362;-37
2023/06/14 11:07:52;;;;;;;1.60;0.90;;;;;;;26.95;27.78;101623.88;5113241;28;20037;-38
2023/06/14 11:10:26;;;;;;;5.30;0.98;;;;;;;26.57;27.34;101652.13;5113228;28;20034;-37
2023/06/14 11:12:54;;;;;;;1.65;0.88;;;;;;;26.54;27.46;101646.41;5113416;28;20118;-37
2023/06/14 11:15:20;;;;;;;4.68;0.93;;;;;;;26.36;27.24;101645.50;5112872;28;20028;-38
2023/06/14 11:17:53;;;;;;;5.13;1.00;;;;;;;26.52;27.97;101643.16;5112882;28;20119;-38
2023/06/14 11:20:19;;;;;;;2.63;0.90;;;;;;;26.83;28.25;101643.09;5112551;28;20058;-37
2023/06/14 11:22:45;;;;;;;2.65;0.88;;;;;;;26.56;27.64;101630.28;5112770;28;20058;-37
2023/06/14 11:25:14;;;;;;;2.22;0.80;;;;;;;26.73;27.85;101637.84;5113014;28;20059;-38
2023/06/14 11:27:44;;;;;;;2.05;0.90;;;;;;;26.33;28.00;101635.84;5113119;28;20039;-38
2023/06/14 11:30:10;;;;;;;4.45;1.13;;;;;;;26.46;28.51;101625.84;5112400;28;20450;-37
2023/06/14 11:32:36;;;;;;;3.47;1.00;;;;;;;26.64;28.91;101629.47;5113025;28;20413;-37